sensor_id;sensor_type;location;lat;lon;timestamp;P1;durP1;ratioP1;P2;durP2;ratioP2
17985;SDS011;9118;48.122;11.546;2023-03-04T00:01:37;63.63;;;31.83;;
17985;SDS011;9118;48.122;11.546;2023-03-04T00:04:04;65.50;;;32.63;;
17985;SDS011;9118;48.122;11.546;2023-03-04T00:06:33;62.93;;;30.83;;
17985;SDS011;9118;48.122;11.546;2023-03-04T00:09:00;66.63;;;32.50;;
17985;SDS011;9118;48.122;11.546;2023-03-04T00:11:28;67.47;;;31.83;;
17985;SDS011;9118;48.122;11.546;2023-03-04T00:13:56;62.77;;;31.37;;
17985;SDS011;9118;48.122;11.546;2023-03-04T00:16:23;63.37;;;31.43;;
17985;SDS011;9118;48.122;11.546;2023-03-04T00:18:51;65.43;;;31.97;;
17985;SDS011;9118;48.122;11.546;2023-03-04T00:21:18;63.60;;;31.67;;
17985;SDS011;9118;48.122;11.546;2023-03-04T00:23:45;66.13;;;31.23;;
17985;SDS011;9118;48.122;11.546;2023-03-04T00:26:14;61.07;;;30.13;;
17985;SDS011;9118;48.122;11.546;2023-03-04T00:28:42;57.70;;;29.57;;
17985;SDS011;9118;48.122;11.546;2023-03-04T00:31:10;61.80;;;30.43;;
17985;SDS011;9118;48.122;11.546;2023-03-04T00:33:37;59.40;;;30.30;;
17985;SDS011;9118;48.122;11.546;2023-03-04T00:36:05;58.67;;;29.23;;
17985;SDS011;9118;48.122;11.546;2023-03-04T00:38:32;59.77;;;30.43;;
17985;SDS011;9118;48.122;11.546;2023-03-04T00:40:59;60.47;;;30.33;;
17985;SDS011;9118;48.122;11.546;2023-03-04T00:43:26;58.53;;;30.77;;
17985;SDS011;9118;48.122;11.546;2023-03-04T00:45:53;60.50;;;30.80;;
17985;SDS011;9118;48.122;11.546;2023-03-04T00:48:22;57.70;;;29.77;;
17985;SDS011;9118;48.122;11.546;2023-03-04T00:50:49;59.10;;;29.53;;
17985;SDS011;9118;48.122;11.546;2023-03-04T00:53:18;56.50;;;30.03;;
17985;SDS011;9118;48.122;11.546;2023-03-04T00:55:45;62.73;;;29.90;;
17985;SDS011;9118;48.122;11.546;2023-03-04T00:58:12;58.23;;;30.50;;
17985;SDS011;9118;48.122;11.546;2023-03-04T01:00:39;55.67;;;30.00;;
17985;SDS011;9118;48.122;11.546;2023-03-04T01:03:06;59.97;;;29.57;;
17985;SDS011;9118;48.122;11.546;2023-03-04T01:05:37;56.43;;;28.60;;
17985;SDS011;9118;48.122;11.546;2023-03-04T01:08:04;55.27;;;29.27;;
17985;SDS011;9118;48.122;11.546;2023-03-04T01:10:31;55.10;;;28.90;;
17985;SDS011;9118;48.122;11.546;2023-03-04T01:12:59;64.47;;;30.20;;
17985;SDS011;9118;48.122;11.546;2023-03-04T01:15:26;57.60;;;29.47;;
17985;SDS011;9118;48.122;11.546;2023-03-04T01:17:53;58.10;;;29.77;;
17985;SDS011;9118;48.122;11.546;2023-03-04T01:20:21;58.77;;;29.53;;
17985;SDS011;9118;48.122;11.546;2023-03-04T01:22:49;58.30;;;30.60;;
17985;SDS011;9118;48.122;11.546;2023-03-04T01:25:16;60.17;;;30.67;;
17985;SDS011;9118;48.122;11.546;2023-03-04T01:27:43;55.67;;;28.73;;
17985;SDS011;9118;48.122;11.546;2023-03-04T01:30:10;61.80;;;31.30;;
17985;SDS011;9118;48.122;11.546;2023-03-04T01:32:38;60.37;;;30.53;;
17985;SDS011;9118;48.122;11.546;2023-03-04T01:35:05;59.07;;;29.83;;
17985;SDS011;9118;48.122;11.546;2023-03-04T01:37:32;57.77;;;30.23;;
17985;SDS011;9118;48.122;11.546;2023-03-04T01:40:01;62.57;;;30.40;;
17985;SDS011;9118;48.122;11.546;2023-03-04T01:42:30;56.37;;;29.53;;
17985;SDS011;9118;48.122;11.546;2023-03-04T01:44:59;59.83;;;30.97;;
17985;SDS011;9118;48.122;11.546;2023-03-04T01:47:28;58.47;;;30.17;;
17985;SDS011;9118;48.122;11.546;2023-03-04T01:49:56;59.10;;;30.97;;
17985;SDS011;9118;48.122;11.546;2023-03-04T01:52:26;55.97;;;29.10;;
17985;SDS011;9118;48.122;11.546;2023-03-04T01:54:54;57.17;;;29.50;;
17985;SDS011;9118;48.122;11.546;2023-03-04T01:57:23;56.60;;;29.13;;
17985;SDS011;9118;48.122;11.546;2023-03-04T02:02:40;58.00;;;29.83;;
17985;SDS011;9118;48.122;11.546;2023-03-04T02:05:07;56.47;;;29.80;;
17985;SDS011;9118;48.122;11.546;2023-03-04T02:07:34;57.50;;;28.73;;
17985;SDS011;9118;48.122;11.546;2023-03-04T02:10:02;56.97;;;28.87;;
17985;SDS011;9118;48.122;11.546;2023-03-04T02:12:31;55.13;;;28.43;;
17985;SDS011;9118;48.122;11.546;2023-03-04T02:15:00;55.50;;;28.93;;
17985;SDS011;9118;48.122;11.546;2023-03-04T02:17:30;59.90;;;30.77;;
17985;SDS011;9118;48.122;11.546;2023-03-04T02:19:59;60.23;;;29.40;;
17985;SDS011;9118;48.122;11.546;2023-03-04T02:22:33;56.33;;;29.07;;
17985;SDS011;9118;48.122;11.546;2023-03-04T02:25:06;57.77;;;29.40;;
17985;SDS011;9118;48.122;11.546;2023-03-04T02:27:39;57.10;;;29.00;;
17985;SDS011;9118;48.122;11.546;2023-03-04T02:30:07;56.77;;;29.57;;
17985;SDS011;9118;48.122;11.546;2023-03-04T02:32:35;58.17;;;30.00;;
17985;SDS011;9118;48.122;11.546;2023-03-04T02:35:03;53.10;;;28.33;;
17985;SDS011;9118;48.122;11.546;2023-03-04T02:37:30;54.87;;;29.90;;
17985;SDS011;9118;48.122;11.546;2023-03-04T02:39:57;54.70;;;29.20;;
17985;SDS011;9118;48.122;11.546;2023-03-04T02:42:24;60.93;;;29.70;;
17985;SDS011;9118;48.122;11.546;2023-03-04T02:44:59;58.33;;;29.23;;
17985;SDS011;9118;48.122;11.546;2023-03-04T02:47:26;54.60;;;28.37;;
17985;SDS011;9118;48.122;11.546;2023-03-04T02:49:53;53.30;;;28.30;;
17985;SDS011;9118;48.122;11.546;2023-03-04T02:52:24;59.93;;;30.00;;
17985;SDS011;9118;48.122;11.546;2023-03-04T02:54:52;58.03;;;28.80;;
17985;SDS011;9118;48.122;11.546;2023-03-04T02:57:19;56.00;;;28.00;;
17985;SDS011;9118;48.122;11.546;2023-03-04T02:59:46;54.80;;;28.57;;
17985;SDS011;9118;48.122;11.546;2023-03-04T03:02:14;56.73;;;29.07;;
17985;SDS011;9118;48.122;11.546;2023-03-04T03:04:41;54.37;;;28.23;;
17985;SDS011;9118;48.122;11.546;2023-03-04T03:07:08;56.90;;;28.17;;
17985;SDS011;9118;48.122;11.546;2023-03-04T03:09:35;52.77;;;27.70;;
17985;SDS011;9118;48.122;11.546;2023-03-04T03:12:02;55.47;;;28.77;;
17985;SDS011;9118;48.122;11.546;2023-03-04T03:14:30;54.37;;;28.17;;
17985;SDS011;9118;48.122;11.546;2023-03-04T03:16:57;54.47;;;29.40;;
17985;SDS011;9118;48.122;11.546;2023-03-04T03:19:25;59.20;;;29.00;;
17985;SDS011;9118;48.122;11.546;2023-03-04T03:21:52;58.93;;;28.03;;
17985;SDS011;9118;48.122;11.546;2023-03-04T03:24:22;53.97;;;28.20;;
17985;SDS011;9118;48.122;11.546;2023-03-04T03:26:49;58.87;;;29.17;;
17985;SDS011;9118;48.122;11.546;2023-03-04T03:29:16;53.20;;;28.77;;
17985;SDS011;9118;48.122;11.546;2023-03-04T03:31:43;56.13;;;28.57;;
17985;SDS011;9118;48.122;11.546;2023-03-04T03:34:10;55.47;;;28.00;;
17985;SDS011;9118;48.122;11.546;2023-03-04T03:36:38;54.07;;;28.47;;
17985;SDS011;9118;48.122;11.546;2023-03-04T03:39:05;55.47;;;29.40;;
17985;SDS011;9118;48.122;11.546;2023-03-04T03:41:32;53.97;;;27.90;;
17985;SDS011;9118;48.122;11.546;2023-03-04T03:43:59;59.60;;;30.30;;
17985;SDS011;9118;48.122;11.546;2023-03-04T03:46:26;54.53;;;27.77;;
17985;SDS011;9118;48.122;11.546;2023-03-04T03:48:53;62.60;;;29.77;;
17985;SDS011;9118;48.122;11.546;2023-03-04T03:51:20;57.67;;;29.37;;
17985;SDS011;9118;48.122;11.546;2023-03-04T03:53:49;57.33;;;28.83;;
17985;SDS011;9118;48.122;11.546;2023-03-04T03:56:16;62.03;;;29.43;;
17985;SDS011;9118;48.122;11.546;2023-03-04T03:58:43;58.97;;;30.13;;
17985;SDS011;9118;48.122;11.546;2023-03-04T04:01:10;57.03;;;28.93;;
17985;SDS011;9118;48.122;11.546;2023-03-04T04:03:37;65.17;;;30.00;;
17985;SDS011;9118;48.122;11.546;2023-03-04T04:06:04;57.90;;;29.73;;
17985;SDS011;9118;48.122;11.546;2023-03-04T04:08:32;54.60;;;28.93;;
17985;SDS011;9118;48.122;11.546;2023-03-04T04:11:00;54.30;;;29.07;;
17985;SDS011;9118;48.122;11.546;2023-03-04T04:13:27;56.57;;;29.57;;
17985;SDS011;9118;48.122;11.546;2023-03-04T04:15:54;59.67;;;29.47;;
17985;SDS011;9118;48.122;11.546;2023-03-04T04:18:23;62.13;;;29.93;;
17985;SDS011;9118;48.122;11.546;2023-03-04T04:20:52;53.87;;;27.40;;
17985;SDS011;9118;48.122;11.546;2023-03-04T04:23:19;56.63;;;29.47;;
17985;SDS011;9118;48.122;11.546;2023-03-04T04:25:46;53.37;;;27.63;;
17985;SDS011;9118;48.122;11.546;2023-03-04T04:28:14;53.43;;;28.20;;
17985;SDS011;9118;48.122;11.546;2023-03-04T04:30:41;53.53;;;27.90;;
17985;SDS011;9118;48.122;11.546;2023-03-04T04:33:08;50.43;;;27.03;;
17985;SDS011;9118;48.122;11.546;2023-03-04T04:35:36;57.97;;;29.37;;
17985;SDS011;9118;48.122;11.546;2023-03-04T04:38:03;48.97;;;26.60;;
17985;SDS011;9118;48.122;11.546;2023-03-04T04:40:30;56.70;;;28.47;;
17985;SDS011;9118;48.122;11.546;2023-03-04T04:42:57;51.50;;;27.93;;
17985;SDS011;9118;48.122;11.546;2023-03-04T04:45:25;49.97;;;27.20;;
17985;SDS011;9118;48.122;11.546;2023-03-04T04:47:52;51.87;;;27.67;;
17985;SDS011;9118;48.122;11.546;2023-03-04T04:50:21;53.97;;;29.03;;
17985;SDS011;9118;48.122;11.546;2023-03-04T04:52:48;57.47;;;27.67;;
17985;SDS011;9118;48.122;11.546;2023-03-04T04:55:16;57.43;;;28.90;;
17985;SDS011;9118;48.122;11.546;2023-03-04T04:57:43;49.90;;;26.83;;
17985;SDS011;9118;48.122;11.546;2023-03-04T05:00:10;55.93;;;27.90;;
17985;SDS011;9118;48.122;11.546;2023-03-04T05:02:39;55.73;;;27.97;;
17985;SDS011;9118;48.122;11.546;2023-03-04T05:05:06;49.00;;;26.20;;
17985;SDS011;9118;48.122;11.546;2023-03-04T05:07:34;52.40;;;27.37;;
17985;SDS011;9118;48.122;11.546;2023-03-04T05:10:01;54.30;;;27.97;;
17985;SDS011;9118;48.122;11.546;2023-03-04T05:12:31;52.27;;;26.23;;
17985;SDS011;9118;48.122;11.546;2023-03-04T05:14:58;49.13;;;26.60;;
17985;SDS011;9118;48.122;11.546;2023-03-04T05:17:25;51.37;;;27.10;;
17985;SDS011;9118;48.122;11.546;2023-03-04T05:19:53;53.60;;;27.70;;
17985;SDS011;9118;48.122;11.546;2023-03-04T05:22:20;50.07;;;26.30;;
17985;SDS011;9118;48.122;11.546;2023-03-04T05:24:47;51.50;;;27.47;;
17985;SDS011;9118;48.122;11.546;2023-03-04T05:27:14;52.47;;;27.47;;
17985;SDS011;9118;48.122;11.546;2023-03-04T05:29:41;49.87;;;26.40;;
17985;SDS011;9118;48.122;11.546;2023-03-04T05:32:10;49.67;;;26.27;;
17985;SDS011;9118;48.122;11.546;2023-03-04T05:34:37;50.47;;;27.73;;
17985;SDS011;9118;48.122;11.546;2023-03-04T05:37:06;50.77;;;27.90;;
17985;SDS011;9118;48.122;11.546;2023-03-04T05:39:33;51.33;;;26.43;;
17985;SDS011;9118;48.122;11.546;2023-03-04T05:41:59;51.23;;;28.13;;
17985;SDS011;9118;48.122;11.546;2023-03-04T05:44:27;52.83;;;26.77;;
17985;SDS011;9118;48.122;11.546;2023-03-04T05:46:54;50.20;;;25.30;;
17985;SDS011;9118;48.122;11.546;2023-03-04T05:49:20;50.03;;;27.23;;
17985;SDS011;9118;48.122;11.546;2023-03-04T05:51:47;51.67;;;27.13;;
17985;SDS011;9118;48.122;11.546;2023-03-04T05:54:16;51.00;;;26.90;;
17985;SDS011;9118;48.122;11.546;2023-03-04T05:56:44;50.57;;;26.70;;
17985;SDS011;9118;48.122;11.546;2023-03-04T05:59:14;56.77;;;27.90;;
17985;SDS011;9118;48.122;11.546;2023-03-04T06:01:44;56.07;;;28.20;;
17985;SDS011;9118;48.122;11.546;2023-03-04T06:04:11;49.73;;;25.93;;
17985;SDS011;9118;48.122;11.546;2023-03-04T06:06:41;53.87;;;26.10;;
17985;SDS011;9118;48.122;11.546;2023-03-04T06:09:10;51.83;;;26.60;;
17985;SDS011;9118;48.122;11.546;2023-03-04T06:11:39;50.93;;;26.70;;
17985;SDS011;9118;48.122;11.546;2023-03-04T06:14:06;49.97;;;25.57;;
17985;SDS011;9118;48.122;11.546;2023-03-04T06:16:33;51.00;;;27.90;;
17985;SDS011;9118;48.122;11.546;2023-03-04T06:19:00;47.77;;;26.73;;
17985;SDS011;9118;48.122;11.546;2023-03-04T06:21:27;52.00;;;27.97;;
17985;SDS011;9118;48.122;11.546;2023-03-04T06:23:54;54.87;;;27.63;;
17985;SDS011;9118;48.122;11.546;2023-03-04T06:26:21;53.17;;;26.33;;
17985;SDS011;9118;48.122;11.546;2023-03-04T06:28:49;57.57;;;26.53;;
17985;SDS011;9118;48.122;11.546;2023-03-04T06:31:19;47.93;;;24.53;;
17985;SDS011;9118;48.122;11.546;2023-03-04T06:33:46;49.27;;;26.57;;
17985;SDS011;9118;48.122;11.546;2023-03-04T06:36:13;52.30;;;26.87;;
17985;SDS011;9118;48.122;11.546;2023-03-04T06:38:40;48.80;;;27.27;;
17985;SDS011;9118;48.122;11.546;2023-03-04T06:41:07;48.10;;;25.50;;
17985;SDS011;9118;48.122;11.546;2023-03-04T06:43:36;51.17;;;26.93;;
17985;SDS011;9118;48.122;11.546;2023-03-04T06:46:05;49.27;;;25.73;;
17985;SDS011;9118;48.122;11.546;2023-03-04T06:48:33;49.30;;;25.73;;
17985;SDS011;9118;48.122;11.546;2023-03-04T06:51:03;51.40;;;26.77;;
17985;SDS011;9118;48.122;11.546;2023-03-04T06:53:32;52.03;;;26.93;;
17985;SDS011;9118;48.122;11.546;2023-03-04T06:55:59;46.43;;;25.57;;
17985;SDS011;9118;48.122;11.546;2023-03-04T06:58:25;51.93;;;26.87;;
17985;SDS011;9118;48.122;11.546;2023-03-04T07:00:52;52.23;;;27.97;;
17985;SDS011;9118;48.122;11.546;2023-03-04T07:03:21;52.00;;;27.53;;
17985;SDS011;9118;48.122;11.546;2023-03-04T07:05:48;52.57;;;26.37;;
17985;SDS011;9118;48.122;11.546;2023-03-04T07:08:15;50.13;;;28.30;;
17985;SDS011;9118;48.122;11.546;2023-03-04T07:10:42;54.60;;;27.13;;
17985;SDS011;9118;48.122;11.546;2023-03-04T07:13:09;54.37;;;27.87;;
17985;SDS011;9118;48.122;11.546;2023-03-04T07:15:36;55.90;;;28.80;;
17985;SDS011;9118;48.122;11.546;2023-03-04T07:18:03;50.77;;;27.70;;
17985;SDS011;9118;48.122;11.546;2023-03-04T07:20:32;54.27;;;28.87;;
17985;SDS011;9118;48.122;11.546;2023-03-04T07:22:59;55.13;;;28.57;;
17985;SDS011;9118;48.122;11.546;2023-03-04T07:25:26;54.17;;;28.67;;
17985;SDS011;9118;48.122;11.546;2023-03-04T07:27:53;54.33;;;27.37;;
17985;SDS011;9118;48.122;11.546;2023-03-04T07:30:20;53.47;;;29.33;;
17985;SDS011;9118;48.122;11.546;2023-03-04T07:32:50;56.17;;;30.37;;
17985;SDS011;9118;48.122;11.546;2023-03-04T07:35:17;58.43;;;30.20;;
17985;SDS011;9118;48.122;11.546;2023-03-04T07:37:45;55.77;;;29.17;;
17985;SDS011;9118;48.122;11.546;2023-03-04T07:40:12;58.73;;;30.33;;
17985;SDS011;9118;48.122;11.546;2023-03-04T07:42:39;60.83;;;28.67;;
17985;SDS011;9118;48.122;11.546;2023-03-04T07:45:06;56.93;;;29.20;;
17985;SDS011;9118;48.122;11.546;2023-03-04T07:47:34;59.63;;;29.10;;
17985;SDS011;9118;48.122;11.546;2023-03-04T07:50:01;55.43;;;29.70;;
17985;SDS011;9118;48.122;11.546;2023-03-04T07:52:28;52.23;;;29.03;;
17985;SDS011;9118;48.122;11.546;2023-03-04T07:54:57;60.30;;;30.30;;
17985;SDS011;9118;48.122;11.546;2023-03-04T07:57:24;56.97;;;28.10;;
17985;SDS011;9118;48.122;11.546;2023-03-04T07:59:51;58.57;;;31.07;;
17985;SDS011;9118;48.122;11.546;2023-03-04T08:02:18;56.37;;;29.33;;
17985;SDS011;9118;48.122;11.546;2023-03-04T08:04:45;58.60;;;30.87;;
17985;SDS011;9118;48.122;11.546;2023-03-04T08:07:12;59.37;;;29.53;;
17985;SDS011;9118;48.122;11.546;2023-03-04T08:09:39;57.17;;;29.27;;
17985;SDS011;9118;48.122;11.546;2023-03-04T08:12:07;59.97;;;30.67;;
17985;SDS011;9118;48.122;11.546;2023-03-04T08:14:53;60.03;;;30.55;;
17985;SDS011;9118;48.122;11.546;2023-03-04T08:17:20;62.73;;;31.90;;
17985;SDS011;9118;48.122;11.546;2023-03-04T08:19:47;61.87;;;30.63;;
17985;SDS011;9118;48.122;11.546;2023-03-04T08:22:14;60.53;;;30.67;;
17985;SDS011;9118;48.122;11.546;2023-03-04T08:24:41;61.07;;;31.20;;
17985;SDS011;9118;48.122;11.546;2023-03-04T08:27:09;58.90;;;30.70;;
17985;SDS011;9118;48.122;11.546;2023-03-04T08:29:36;59.30;;;30.30;;
17985;SDS011;9118;48.122;11.546;2023-03-04T08:32:03;60.40;;;30.30;;
17985;SDS011;9118;48.122;11.546;2023-03-04T08:34:31;57.87;;;30.07;;
17985;SDS011;9118;48.122;11.546;2023-03-04T08:36:58;59.80;;;30.97;;
17985;SDS011;9118;48.122;11.546;2023-03-04T08:39:25;57.93;;;30.53;;
17985;SDS011;9118;48.122;11.546;2023-03-04T08:41:52;58.23;;;29.67;;
17985;SDS011;9118;48.122;11.546;2023-03-04T08:44:21;60.60;;;29.80;;
17985;SDS011;9118;48.122;11.546;2023-03-04T08:46:48;59.50;;;30.60;;
17985;SDS011;9118;48.122;11.546;2023-03-04T08:49:15;59.90;;;29.73;;
17985;SDS011;9118;48.122;11.546;2023-03-04T08:51:42;57.13;;;28.93;;
17985;SDS011;9118;48.122;11.546;2023-03-04T08:54:09;59.07;;;29.63;;
17985;SDS011;9118;48.122;11.546;2023-03-04T08:56:37;54.00;;;28.67;;
17985;SDS011;9118;48.122;11.546;2023-03-04T08:59:05;60.03;;;29.57;;
17985;SDS011;9118;48.122;11.546;2023-03-04T09:01:34;60.63;;;29.30;;
17985;SDS011;9118;48.122;11.546;2023-03-04T09:04:01;58.47;;;30.33;;
17985;SDS011;9118;48.122;11.546;2023-03-04T09:06:28;58.43;;;29.43;;
17985;SDS011;9118;48.122;11.546;2023-03-04T09:08:55;54.03;;;28.00;;
17985;SDS011;9118;48.122;11.546;2023-03-04T09:11:22;53.37;;;28.57;;
17985;SDS011;9118;48.122;11.546;2023-03-04T09:13:49;52.43;;;27.23;;
17985;SDS011;9118;48.122;11.546;2023-03-04T09:16:17;56.53;;;28.13;;
17985;SDS011;9118;48.122;11.546;2023-03-04T09:18:45;52.63;;;26.93;;
17985;SDS011;9118;48.122;11.546;2023-03-04T09:21:13;49.07;;;26.30;;
17985;SDS011;9118;48.122;11.546;2023-03-04T09:23:42;49.30;;;26.00;;
17985;SDS011;9118;48.122;11.546;2023-03-04T09:26:12;46.13;;;24.47;;
17985;SDS011;9118;48.122;11.546;2023-03-04T09:28:41;47.97;;;24.83;;
17985;SDS011;9118;48.122;11.546;2023-03-04T09:31:11;46.40;;;24.13;;
17985;SDS011;9118;48.122;11.546;2023-03-04T09:33:38;44.63;;;24.00;;
17985;SDS011;9118;48.122;11.546;2023-03-04T09:36:09;41.83;;;22.87;;
17985;SDS011;9118;48.122;11.546;2023-03-04T09:38:38;48.40;;;25.33;;
17985;SDS011;9118;48.122;11.546;2023-03-04T09:41:07;44.13;;;24.30;;
17985;SDS011;9118;48.122;11.546;2023-03-04T09:43:36;45.57;;;24.80;;
17985;SDS011;9118;48.122;11.546;2023-03-04T09:46:06;42.33;;;23.47;;
17985;SDS011;9118;48.122;11.546;2023-03-04T09:48:39;45.60;;;24.73;;
17985;SDS011;9118;48.122;11.546;2023-03-04T09:51:27;47.33;;;23.90;;
17985;SDS011;9118;48.122;11.546;2023-03-04T09:54:07;51.20;;;23.90;;
17985;SDS011;9118;48.122;11.546;2023-03-04T09:56:43;43.10;;;22.80;;
17985;SDS011;9118;48.122;11.546;2023-03-04T09:59:14;38.47;;;20.63;;
17985;SDS011;9118;48.122;11.546;2023-03-04T10:01:48;41.33;;;20.90;;
17985;SDS011;9118;48.122;11.546;2023-03-04T10:04:21;43.07;;;22.47;;
17985;SDS011;9118;48.122;11.546;2023-03-04T10:07:00;44.63;;;23.47;;
17985;SDS011;9118;48.122;11.546;2023-03-04T10:09:29;42.20;;;22.87;;
17985;SDS011;9118;48.122;11.546;2023-03-04T10:12:11;45.13;;;23.27;;
17985;SDS011;9118;48.122;11.546;2023-03-04T10:14:57;43.33;;;23.00;;
17985;SDS011;9118;48.122;11.546;2023-03-04T10:17:29;46.50;;;22.93;;
17985;SDS011;9118;48.122;11.546;2023-03-04T10:20:02;43.27;;;24.27;;
17985;SDS011;9118;48.122;11.546;2023-03-04T10:22:35;48.90;;;24.77;;
17985;SDS011;9118;48.122;11.546;2023-03-04T10:25:14;47.90;;;24.57;;
17985;SDS011;9118;48.122;11.546;2023-03-04T10:27:50;45.30;;;23.37;;
17985;SDS011;9118;48.122;11.546;2023-03-04T10:30:25;47.43;;;25.83;;
17985;SDS011;9118;48.122;11.546;2023-03-04T10:33:04;45.47;;;23.90;;
17985;SDS011;9118;48.122;11.546;2023-03-04T10:35:39;54.57;;;26.50;;
17985;SDS011;9118;48.122;11.546;2023-03-04T10:38:13;47.17;;;24.97;;
17985;SDS011;9118;48.122;11.546;2023-03-04T10:40:42;47.37;;;24.77;;
17985;SDS011;9118;48.122;11.546;2023-03-04T10:43:13;48.17;;;24.63;;
17985;SDS011;9118;48.122;11.546;2023-03-04T10:45:42;47.60;;;25.27;;
17985;SDS011;9118;48.122;11.546;2023-03-04T10:48:21;46.27;;;24.77;;
17985;SDS011;9118;48.122;11.546;2023-03-04T10:50:51;49.47;;;25.67;;
17985;SDS011;9118;48.122;11.546;2023-03-04T10:53:31;50.33;;;24.40;;
17985;SDS011;9118;48.122;11.546;2023-03-04T11:01:57;36.77;;;20.77;;
17985;SDS011;9118;48.122;11.546;2023-03-04T11:04:25;40.87;;;20.70;;
17985;SDS011;9118;48.122;11.546;2023-03-04T11:06:59;36.47;;;19.97;;
17985;SDS011;9118;48.122;11.546;2023-03-04T11:09:30;41.73;;;21.70;;
17985;SDS011;9118;48.122;11.546;2023-03-04T11:12:07;37.50;;;21.23;;
17985;SDS011;9118;48.122;11.546;2023-03-04T11:14:38;43.30;;;21.97;;
17985;SDS011;9118;48.122;11.546;2023-03-04T11:17:16;41.90;;;22.67;;
17985;SDS011;9118;48.122;11.546;2023-03-04T11:19:50;48.57;;;23.43;;
17985;SDS011;9118;48.122;11.546;2023-03-04T11:22:23;41.60;;;22.60;;
17985;SDS011;9118;48.122;11.546;2023-03-04T11:24:57;39.53;;;22.43;;
17985;SDS011;9118;48.122;11.546;2023-03-04T11:27:30;39.83;;;22.90;;
17985;SDS011;9118;48.122;11.546;2023-03-04T11:30:14;38.17;;;22.73;;
17985;SDS011;9118;48.122;11.546;2023-03-04T11:32:51;44.20;;;24.00;;
17985;SDS011;9118;48.122;11.546;2023-03-04T11:35:24;44.97;;;23.40;;
17985;SDS011;9118;48.122;11.546;2023-03-04T11:38:05;45.20;;;23.37;;
17985;SDS011;9118;48.122;11.546;2023-03-04T11:40:45;44.63;;;23.00;;
17985;SDS011;9118;48.122;11.546;2023-03-04T11:43:38;43.13;;;23.67;;
17985;SDS011;9118;48.122;11.546;2023-03-04T11:46:13;44.00;;;22.77;;
17985;SDS011;9118;48.122;11.546;2023-03-04T11:49:23;50.57;;;25.33;;
17985;SDS011;9118;48.122;11.546;2023-03-04T11:52:35;47.33;;;25.13;;
17985;SDS011;9118;48.122;11.546;2023-03-04T11:55:26;46.83;;;23.60;;
17985;SDS011;9118;48.122;11.546;2023-03-04T11:58:04;45.70;;;24.57;;
17985;SDS011;9118;48.122;11.546;2023-03-04T12:00:56;46.63;;;25.33;;
17985;SDS011;9118;48.122;11.546;2023-03-04T12:03:39;52.93;;;26.47;;
17985;SDS011;9118;48.122;11.546;2023-03-04T12:06:34;41.00;;;22.80;;
17985;SDS011;9118;48.122;11.546;2023-03-04T12:12:04;45.73;;;25.50;;
17985;SDS011;9118;48.122;11.546;2023-03-04T12:14:49;46.90;;;25.80;;
17985;SDS011;9118;48.122;11.546;2023-03-04T12:17:29;46.13;;;25.20;;
17985;SDS011;9118;48.122;11.546;2023-03-04T12:20:08;46.10;;;26.10;;
17985;SDS011;9118;48.122;11.546;2023-03-04T12:23:05;41.00;;;23.37;;
17985;SDS011;9118;48.122;11.546;2023-03-04T12:25:46;46.13;;;24.07;;
17985;SDS011;9118;48.122;11.546;2023-03-04T12:28:37;40.10;;;23.07;;
17985;SDS011;9118;48.122;11.546;2023-03-04T12:31:29;40.73;;;22.80;;
17985;SDS011;9118;48.122;11.546;2023-03-04T12:34:15;46.63;;;24.10;;
17985;SDS011;9118;48.122;11.546;2023-03-04T12:37:16;42.93;;;23.20;;
17985;SDS011;9118;48.122;11.546;2023-03-04T12:45:52;37.40;;;21.73;;
17985;SDS011;9118;48.122;11.546;2023-03-04T12:48:31;42.27;;;24.80;;
17985;SDS011;9118;48.122;11.546;2023-03-04T12:51:10;43.57;;;22.83;;
17985;SDS011;9118;48.122;11.546;2023-03-04T12:53:49;45.70;;;23.53;;
17985;SDS011;9118;48.122;11.546;2023-03-04T12:56:27;40.17;;;22.53;;
17985;SDS011;9118;48.122;11.546;2023-03-04T12:59:01;41.77;;;23.43;;
17985;SDS011;9118;48.122;11.546;2023-03-04T13:01:31;40.50;;;22.63;;
17985;SDS011;9118;48.122;11.546;2023-03-04T13:04:08;44.97;;;21.27;;
17985;SDS011;9118;48.122;11.546;2023-03-04T13:06:48;35.57;;;20.60;;
17985;SDS011;9118;48.122;11.546;2023-03-04T13:09:27;35.87;;;19.20;;
17985;SDS011;9118;48.122;11.546;2023-03-04T13:12:03;35.77;;;19.10;;
17985;SDS011;9118;48.122;11.546;2023-03-04T13:15:15;33.23;;;19.27;;
17985;SDS011;9118;48.122;11.546;2023-03-04T13:17:43;34.53;;;18.43;;
17985;SDS011;9118;48.122;11.546;2023-03-04T13:20:19;34.13;;;19.83;;
17985;SDS011;9118;48.122;11.546;2023-03-04T13:23:03;39.17;;;19.67;;
17985;SDS011;9118;48.122;11.546;2023-03-04T13:28:43;33.63;;;19.37;;
17985;SDS011;9118;48.122;11.546;2023-03-04T13:31:12;37.57;;;20.17;;
17985;SDS011;9118;48.122;11.546;2023-03-04T13:33:55;36.83;;;20.77;;
17985;SDS011;9118;48.122;11.546;2023-03-04T13:39:31;36.23;;;19.17;;
17985;SDS011;9118;48.122;11.546;2023-03-04T13:42:00;37.23;;;20.63;;
17985;SDS011;9118;48.122;11.546;2023-03-04T13:44:33;36.87;;;19.37;;
17985;SDS011;9118;48.122;11.546;2023-03-04T13:47:31;36.27;;;19.73;;
17985;SDS011;9118;48.122;11.546;2023-03-04T13:50:24;34.10;;;19.93;;
17985;SDS011;9118;48.122;11.546;2023-03-04T13:59:03;35.23;;;20.47;;
17985;SDS011;9118;48.122;11.546;2023-03-04T14:01:56;30.87;;;18.57;;
17985;SDS011;9118;48.122;11.546;2023-03-04T14:04:35;34.73;;;20.37;;
17985;SDS011;9118;48.122;11.546;2023-03-04T14:07:20;38.07;;;19.87;;
17985;SDS011;9118;48.122;11.546;2023-03-04T14:09:57;32.93;;;19.47;;
17985;SDS011;9118;48.122;11.546;2023-03-04T14:12:45;30.60;;;18.47;;
17985;SDS011;9118;48.122;11.546;2023-03-04T14:15:24;34.17;;;19.13;;
17985;SDS011;9118;48.122;11.546;2023-03-04T14:18:00;36.57;;;20.57;;
17985;SDS011;9118;48.122;11.546;2023-03-04T14:20:34;35.90;;;19.40;;
17985;SDS011;9118;48.122;11.546;2023-03-04T14:23:24;34.67;;;19.27;;
17985;SDS011;9118;48.122;11.546;2023-03-04T14:26:06;34.17;;;19.03;;
17985;SDS011;9118;48.122;11.546;2023-03-04T14:28:49;32.43;;;18.30;;
17985;SDS011;9118;48.122;11.546;2023-03-04T14:31:24;37.70;;;19.90;;
17985;SDS011;9118;48.122;11.546;2023-03-04T14:33:59;32.77;;;18.43;;
17985;SDS011;9118;48.122;11.546;2023-03-04T14:36:34;34.07;;;18.73;;
17985;SDS011;9118;48.122;11.546;2023-03-04T14:39:14;33.13;;;18.03;;
17985;SDS011;9118;48.122;11.546;2023-03-04T14:42:14;32.63;;;18.27;;
17985;SDS011;9118;48.122;11.546;2023-03-04T14:44:55;31.77;;;17.63;;
17985;SDS011;9118;48.122;11.546;2023-03-04T14:47:39;29.63;;;17.20;;
17985;SDS011;9118;48.122;11.546;2023-03-04T14:50:23;31.13;;;17.00;;
17985;SDS011;9118;48.122;11.546;2023-03-04T14:53:32;31.83;;;16.87;;
17985;SDS011;9118;48.122;11.546;2023-03-04T14:56:44;31.07;;;16.57;;
17985;SDS011;9118;48.122;11.546;2023-03-04T14:59:35;31.77;;;17.07;;
17985;SDS011;9118;48.122;11.546;2023-03-04T15:05:15;29.30;;;16.20;;
17985;SDS011;9118;48.122;11.546;2023-03-04T15:07:59;30.93;;;16.30;;
17985;SDS011;9118;48.122;11.546;2023-03-04T15:10:57;26.47;;;14.33;;
17985;SDS011;9118;48.122;11.546;2023-03-04T15:13:37;29.10;;;15.40;;
17985;SDS011;9118;48.122;11.546;2023-03-04T15:16:51;26.97;;;14.93;;
17985;SDS011;9118;48.122;11.546;2023-03-04T15:19:28;26.47;;;14.60;;
17985;SDS011;9118;48.122;11.546;2023-03-04T15:22:24;25.77;;;13.93;;